Time;durP1;ratioP1;P1;durP2;ratioP2;P2;SDS_P1;SDS_P2;PMS_P1;PMS_P2;Temp;Humidity;BMP_temperature;BMP_pressure;BME280_temperature;BME280_humidity;BME280_pressure;Samples;Min_cycle;Max_cycle;Signal;HPM_P1;HPM_P2
2023/04/24 00:02:04;;;;;;;5.65;5.18;;;;;;;9.45;96.17;99501.31;7787560;18;20064;-74
2023/04/24 00:04:31;;;;;;;4.70;4.50;;;;;;;8.47;97.39;99347.22;7745121;18;20534;-72
2023/04/24 00:06:59;;;;;;;4.78;4.47;;;;;;;9.24;97.69;99483.47;7787848;18;20269;-73
2023/04/24 00:09:26;;;;;;;4.45;4.25;;;;;;;9.56;97.65;99549.41;7744029;18;20343;-74
2023/04/24 00:11:53;;;;;;;4.50;4.30;;;;;;;9.72;98.30;99570.19;7786666;18;20524;-73
2023/04/24 00:14:20;;;;;;;4.65;4.45;;;;;;;9.70;98.87;99565.97;7744143;18;20009;-72
2023/04/24 00:16:46;;;;;;;4.60;4.30;;;;;;;9.32;98.64;99507.38;7787183;18;20002;-73
2023/04/24 00:19:13;;;;;;;4.45;4.22;;;;;;;9.59;99.16;99557.06;7786845;18;19998;-74
2023/04/24 00:21:39;;;;;;;4.97;4.68;;;;;;;9.59;99.21;99545.75;7786678;18;20020;-73
2023/04/24 00:24:08;;;;;;;4.70;4.50;;;;;;;9.83;99.38;99587.81;7785538;18;20017;-76
2023/04/24 00:26:35;;;;;;;4.80;4.60;;;;;;;9.84;99.07;99581.59;7746110;18;20150;-72
2023/04/24 00:29:01;;;;;;;4.47;4.28;;;;;;;9.89;98.87;99584.78;7789478;18;20318;-73
2023/04/24 00:31:28;;;;;;;4.65;4.35;;;;;;;9.38;98.35;99491.25;7747789;18;20077;-74
2023/04/24 00:33:55;;;;;;;4.55;4.35;;;;;;;10.06;96.16;99577.53;7784029;18;20066;-71
2023/04/24 00:36:21;;;;;;;4.50;4.30;;;;;;;9.47;95.48;99479.31;7746166;18;19998;-73
2023/04/24 00:38:47;;;;;;;4.32;4.13;;;;;;;10.05;95.13;99568.03;7785583;18;20093;-73
2023/04/24 00:41:14;;;;;;;4.70;4.50;;;;;;;9.72;94.07;99509.06;7787283;18;20002;-72
2023/04/24 00:43:40;;;;;;;4.50;4.30;;;;;;;9.29;93.59;99446.50;7785973;18;20459;-74
2023/04/24 00:46:07;;;;;;;4.88;4.68;;;;;;;9.41;92.57;99448.31;7785650;18;20090;-74
2023/04/24 00:48:34;;;;;;;4.97;4.72;;;;;;;10.07;91.17;99542.53;7744535;18;20021;-72
2023/04/24 00:51:01;;;;;;;4.60;4.40;;;;;;;10.02;90.41;99521.88;7787126;18;20188;-76
2023/04/24 00:53:27;;;;;;;5.05;4.75;;;;;;;10.10;88.54;99523.97;7787260;18;19998;-73
2023/04/24 00:55:53;;;;;;;4.57;4.38;;;;;;;10.04;88.03;99512.13;7789821;18;20002;-75
2023/04/24 00:58:20;;;;;;;4.95;4.65;;;;;;;9.84;87.30;99489.91;7789527;18;20126;-74
2023/04/24 01:00:48;;;;;;;5.15;4.85;;;;;;;10.02;86.54;99507.94;7790385;18;20611;-74
2023/04/24 01:03:15;;;;;;;4.75;4.53;;;;;;;10.06;86.63;99512.00;7788323;18;20147;-71
2023/04/24 01:05:42;;;;;;;4.45;4.25;;;;;;;9.91;85.75;99485.09;7748284;18;19998;-74
2023/04/24 01:08:08;;;;;;;5.00;4.72;;;;;;;9.38;85.09;99412.69;7787817;18;20005;-74
2023/04/24 01:10:36;;;;;;;5.15;4.85;;;;;;;9.97;84.91;99509.09;7787691;18;20003;-72
2023/04/24 01:13:02;;;;;;;8.10;4.85;;;;;;;9.68;86.40;99482.28;7788103;18;20002;-72
2023/04/24 01:15:29;;;;;;;4.60;4.40;;;;;;;9.74;88.13;99533.38;7788254;18;20061;-74
2023/04/24 01:17:56;;;;;;;4.85;4.65;;;;;;;9.58;89.54;99531.81;7788579;18;20579;-72
2023/04/24 01:20:24;;;;;;;5.07;4.78;;;;;;;8.74;90.31;99428.28;7787006;18;20069;-72
2023/04/24 01:22:51;;;;;;;4.85;4.63;;;;;;;8.97;91.22;99501.81;7788505;18;20446;-73
2023/04/24 01:25:17;;;;;;;5.47;5.18;;;;;;;9.13;92.11;99531.28;7788341;18;20394;-73
2023/04/24 01:27:44;;;;;;;5.43;5.13;;;;;;;8.25;92.82;99422.69;7746758;18;19994;-77
2023/04/24 01:30:11;;;;;;;6.28;5.68;;;;;;;8.19;94.75;99434.38;7790100;18;20042;-75
2023/04/24 01:32:38;;;;;;;6.22;5.78;;;;;;;7.89;96.34;99422.28;7789670;18;20025;-72
2023/04/24 01:35:06;;;;;;;6.15;5.65;;;;;;;8.60;98.05;99553.88;7784264;18;20126;-73
2023/04/24 01:37:33;;;;;;;4.95;4.70;;;;;;;8.37;99.67;99542.16;7747087;18;20013;-74
2023/04/24 01:39:59;;;;;;;6.38;5.63;;;;;;;8.51;100.00;99573.56;7787418;18;20418;-75
2023/04/24 01:42:26;;;;;;;6.50;6.00;;;;;;;8.49;100.00;99575.44;7789789;18;20013;-72
2023/04/24 01:44:53;;;;;;;5.63;5.22;;;;;;;8.45;100.00;99575.72;7787655;18;20453;-72
2023/04/24 01:47:20;;;;;;;5.20;4.90;;;;;;;7.87;100.00;99501.66;7789157;18;20066;-75
2023/04/24 01:49:48;;;;;;;5.25;4.93;;;;;;;8.24;100.00;99549.94;7787930;18;20031;-74
2023/04/24 01:52:14;;;;;;;6.50;6.10;;;;;;;8.36;100.00;99583.16;7789155;18;20452;-74
2023/04/24 01:54:41;;;;;;;5.70;5.30;;;;;;;7.70;100.00;99493.06;7791033;18;20275;-75
2023/04/24 01:57:08;;;;;;;5.60;5.15;;;;;;;8.38;100.00;99596.97;7796523;18;20005;-74
2023/04/24 01:59:36;;;;;;;6.65;5.78;;;;;;;8.44;100.00;99587.97;7793714;18;20064;-73
2023/04/24 02:02:03;;;;;;;6.20;5.78;;;;;;;7.93;100.00;99523.03;7787023;18;20002;-73
2023/04/24 02:04:29;;;;;;;6.07;5.68;;;;;;;8.49;100.00;99591.13;7745654;18;20009;-72
2023/04/24 02:06:56;;;;;;;5.30;5.00;;;;;;;8.45;100.00;99594.03;7788734;18;20006;-73
2023/04/24 02:09:22;;;;;;;6.28;5.85;;;;;;;8.37;100.00;99584.81;7787024;18;20169;-75
2023/04/24 02:11:48;;;;;;;5.85;5.50;;;;;;;8.48;100.00;99601.66;7747376;18;20004;-74
2023/04/24 02:14:15;;;;;;;5.63;5.22;;;;;;;8.52;100.00;99595.31;7786681;18;20226;-76
2023/04/24 02:16:42;;;;;;;5.03;4.72;;;;;;;7.68;100.00;99450.56;7786016;18;20010;-74
2023/04/24 02:19:08;;;;;;;6.35;5.85;;;;;;;8.53;100.00;99597.00;7784969;18;20068;-74
2023/04/24 02:21:35;;;;;;;5.43;5.13;;;;;;;8.57;100.00;99585.41;7785531;18;20493;-73
2023/04/24 02:24:02;;;;;;;6.05;5.65;;;;;;;8.58;100.00;99590.56;7785773;18;20352;-75
2023/04/24 02:26:28;;;;;;;6.35;5.85;;;;;;;8.62;100.00;99591.22;7786987;18;20416;-76
2023/04/24 02:28:54;;;;;;;16.35;5.80;;;;;;;8.65;100.00;99596.25;7744298;18;20009;-77
2023/04/24 02:31:21;;;;;;;5.47;5.07;;;;;;;8.32;100.00;99555.53;7787207;18;20383;-74
2023/04/24 02:33:47;;;;;;;7.57;6.22;;;;;;;8.76;100.00;99609.50;7785399;18;20387;-75
2023/04/24 02:36:14;;;;;;;7.57;6.25;;;;;;;8.83;100.00;99609.97;7783312;18;20009;-76
2023/04/24 02:38:40;;;;;;;9.48;5.95;;;;;;;8.78;100.00;99602.41;7744284;18;20002;-75
2023/04/24 02:41:07;;;;;;;5.72;5.18;;;;;;;8.36;100.00;99525.66;7786815;18;20073;-76
2023/04/24 02:43:33;;;;;;;6.35;5.75;;;;;;;8.89;100.00;99612.19;7786509;18;20469;-76
2023/04/24 02:45:59;;;;;;;6.00;5.50;;;;;;;8.92;100.00;99616.38;7745805;18;20477;-76
2023/04/24 02:48:26;;;;;;;7.18;6.25;;;;;;;8.22;100.00;99501.28;7786637;18;20005;-74
2023/04/24 02:50:52;;;;;;;6.18;5.70;;;;;;;8.97;100.00;99620.41;7787863;18;20164;-76
2023/04/24 02:53:19;;;;;;;7.97;5.70;;;;;;;8.61;100.00;99558.13;7786392;18;20002;-73
2023/04/24 02:55:45;;;;;;;6.25;5.65;;;;;;;8.94;99.85;99617.13;7787722;18;20296;-75
2023/04/24 02:58:12;;;;;;;11.52;5.72;;;;;;;8.51;100.00;99541.34;7785836;18;20002;-74
2023/04/24 03:00:39;;;;;;;6.30;5.75;;;;;;;8.96;99.88;99625.72;7786277;18;20013;-74
2023/04/24 03:03:06;;;;;;;6.72;6.22;;;;;;;8.96;99.97;99613.50;7786938;18;19997;-74
2023/04/24 03:05:33;;;;;;;7.22;6.57;;;;;;;8.95;99.61;99617.03;7788054;18;20379;-74
2023/04/24 03:07:59;;;;;;;6.88;6.25;;;;;;;8.99;98.92;99618.53;7786211;18;20168;-74
2023/04/24 03:10:26;;;;;;;6.05;5.65;;;;;;;8.55;98.53;99554.13;7744371;18;20013;-76
2023/04/24 03:12:52;;;;;;;6.55;6.03;;;;;;;8.36;99.32;99543.13;7786478;18;20002;-76
2023/04/24 03:15:19;;;;;;;5.80;5.40;;;;;;;8.94;99.15;99622.34;7786926;18;20085;-75
2023/04/24 03:17:45;;;;;;;5.88;5.32;;;;;;;8.94;99.10;99624.97;7787395;18;20045;-74
2023/04/24 03:20:12;;;;;;;6.88;6.35;;;;;;;8.97;98.53;99624.78;7786065;18;20293;-75
2023/04/24 03:22:38;;;;;;;6.85;5.45;;;;;;;8.97;98.23;99625.63;7786516;18;20007;-75
2023/04/24 03:25:05;;;;;;;6.78;6.00;;;;;;;8.94;96.91;99615.38;7786088;18;20025;-75
2023/04/24 03:27:31;;;;;;;6.40;5.45;;;;;;;8.96;96.26;99617.88;7788484;18;20054;-75
2023/04/24 03:29:58;;;;;;;6.18;5.68;;;;;;;9.02;96.37;99625.34;7785656;18;20606;-75
2023/04/24 03:32:24;;;;;;;6.35;5.80;;;;;;;8.91;96.39;99607.69;7786820;18;20434;-74
2023/04/24 03:34:51;;;;;;;6.50;5.90;;;;;;;8.91;96.05;99612.94;7786099;18;20006;-76
2023/04/24 03:37:17;;;;;;;6.80;6.30;;;;;;;8.96;95.91;99618.72;7785166;18;20017;-73
2023/04/24 03:39:44;;;;;;;7.53;6.65;;;;;;;8.96;95.60;99616.13;7786945;18;20005;-73
2023/04/24 03:42:10;;;;;;;7.00;6.32;;;;;;;8.95;94.84;99616.19;7788082;18;19998;-74
2023/04/24 03:44:37;;;;;;;6.28;5.70;;;;;;;8.91;94.53;99609.47;7787452;18;20009;-73
2023/04/24 03:47:03;;;;;;;6.53;6.00;;;;;;;8.92;95.68;99613.75;7788331;18;19994;-76
2023/04/24 03:49:30;;;;;;;8.40;6.60;;;;;;;8.53;96.13;99563.84;7789231;18;19994;-74
2023/04/24 03:51:56;;;;;;;5.45;5.05;;;;;;;8.89;96.25;99613.97;7789369;18;20194;-74
2023/04/24 03:54:22;;;;;;;5.85;5.35;;;;;;;8.82;95.75;99608.28;7788754;18;19994;-75
2023/04/24 03:56:49;;;;;;;6.55;6.05;;;;;;;8.53;94.92;99553.38;7790289;18;20222;-73
2023/04/24 03:59:15;;;;;;;6.03;5.57;;;;;;;8.43;95.43;99526.13;7788121;18;20539;-73
2023/04/24 04:01:42;;;;;;;6.72;6.07;;;;;;;8.89;95.70;99614.81;7746847;18;20073;-74
2023/04/24 04:04:09;;;;;;;6.88;6.35;;;;;;;8.76;95.56;99600.84;7785613;18;20142;-74
2023/04/24 04:06:36;;;;;;;7.25;6.55;;;;;;;8.87;95.42;99629.75;7789216;18;20383;-74
2023/04/24 04:09:03;;;;;;;8.02;5.95;;;;;;;8.66;96.25;99597.94;7786187;18;20542;-74
2023/04/24 04:11:30;;;;;;;6.97;6.30;;;;;;;8.81;97.82;99634.53;7787784;18;20100;-74
2023/04/24 04:13:56;;;;;;;11.43;6.40;;;;;;;8.80;98.90;99644.19;7786073;18;19998;-74
2023/04/24 04:16:23;;;;;;;14.85;6.55;;;;;;;8.15;99.98;99546.09;7789430;18;20384;-73
2023/04/24 04:18:49;;;;;;;6.13;5.50;;;;;;;8.77;100.00;99645.19;7785716;18;20059;-73
2023/04/24 04:21:16;;;;;;;6.88;6.07;;;;;;;8.77;100.00;99642.56;7785988;18;20005;-74
2023/04/24 04:23:42;;;;;;;6.53;5.93;;;;;;;8.77;99.42;99655.66;7743719;18;20490;-70
2023/04/24 04:26:09;;;;;;;6.97;6.43;;;;;;;8.70;100.00;99682.25;7745150;18;20010;-71
2023/04/24 04:28:35;;;;;;;6.63;5.45;;;;;;;8.81;99.63;99647.63;7786231;18;20006;-71
2023/04/24 04:31:01;;;;;;;6.65;6.05;;;;;;;7.42;99.83;99428.63;7788219;18;20001;-70
2023/04/24 04:33:28;;;;;;;7.57;6.32;;;;;;;8.80;99.73;99654.63;7787100;18;20025;-71
2023/04/24 04:35:56;;;;;;;12.07;7.03;;;;;;;8.46;99.73;99601.78;7788322;18;20004;-71
2023/04/24 04:38:23;;;;;;;14.00;5.53;;;;;;;8.78;100.00;99664.34;7744978;18;20002;-71
2023/04/24 04:40:49;;;;;;;7.10;6.43;;;;;;;8.75;98.62;99662.75;7788390;18;20056;-70
2023/04/24 04:43:16;;;;;;;6.97;6.18;;;;;;;8.75;99.32;99654.06;7787309;18;20017;-70
2023/04/24 04:45:45;;;;;;;6.38;5.93;;;;;;;8.75;98.59;99662.75;7787295;18;20000;-71
2023/04/24 04:48:13;;;;;;;6.15;5.55;;;;;;;8.72;98.54;99656.84;7786412;18;20006;-71
2023/04/24 04:50:40;;;;;;;6.55;5.90;;;;;;;8.77;98.59;99657.44;7787555;18;20477;-72
2023/04/24 04:53:06;;;;;;;6.20;5.70;;;;;;;8.79;98.78;99660.78;7786807;18;20008;-71
2023/04/24 04:55:33;;;;;;;6.03;5.63;;;;;;;8.80;98.41;99667.72;7746060;18;20015;-70
2023/04/24 04:58:00;;;;;;;5.93;5.53;;;;;;;8.82;98.43;99662.38;7785964;18;20576;-70
2023/04/24 05:00:27;;;;;;;5.68;5.25;;;;;;;8.43;97.39;99595.88;7745752;18;20002;-72
2023/04/24 05:02:53;;;;;;;5.97;5.35;;;;;;;8.82;97.31;99665.84;7786906;18;20063;-70
2023/04/24 05:05:24;;;;;;;6.68;6.07;;;;;;;8.59;96.91;99633.25;7787208;18;20014;-71
2023/04/24 05:07:52;;;;;;;5.78;5.38;;;;;;;8.76;96.22;99651.38;7787371;18;20344;-72
2023/04/24 05:10:19;;;;;;;5.53;5.13;;;;;;;8.77;96.02;99658.25;7786432;18;20528;-72
2023/04/24 05:12:45;;;;;;;6.38;5.95;;;;;;;8.77;96.43;99662.66;7786852;18;20010;-72
2023/04/24 05:15:12;;;;;;;6.35;5.88;;;;;;;8.83;96.40;99675.38;7786481;18;20077;-71
2023/04/24 05:17:39;;;;;;;5.97;5.35;;;;;;;8.83;95.73;99671.91;7788131;18;20010;-71
2023/04/24 05:20:07;;;;;;;6.53;6.00;;;;;;;8.84;96.36;99676.19;7784452;18;20027;-72
2023/04/24 05:22:33;;;;;;;8.02;5.55;;;;;;;8.79;97.04;99681.72;7790804;18;20061;-71
2023/04/24 05:25:00;;;;;;;5.53;5.13;;;;;;;8.79;97.03;99692.19;7787662;18;20241;-74
2023/04/24 05:27:26;;;;;;;6.20;5.68;;;;;;;8.75;99.34;99690.69;7787637;18;20001;-69
2023/04/24 05:29:52;;;;;;;7.85;5.32;;;;;;;8.70;100.00;99697.97;7786485;18;20069;-69
2023/04/24 05:32:19;;;;;;;6.30;5.85;;;;;;;8.57;100.00;99703.94;7745621;18;20002;-69
2023/04/24 05:34:46;;;;;;;6.95;6.35;;;;;;;8.57;100.00;99710.94;7744917;18;20482;-69
2023/04/24 05:37:12;;;;;;;5.57;5.07;;;;;;;8.24;100.00;99677.13;7746157;18;20008;-73
2023/04/24 05:39:40;;;;;;;6.00;5.50;;;;;;;8.57;100.00;99726.63;7785699;18;19999;-68
2023/04/24 05:42:07;;;;;;;5.25;4.95;;;;;;;8.49;100.00;99727.09;7788359;18;20372;-69
2023/04/24 05:44:34;;;;;;;5.18;4.78;;;;;;;8.49;100.00;99726.25;7787437;18;20194;-69
2023/04/24 05:47:00;;;;;;;5.35;4.95;;;;;;;7.82;100.00;99618.63;7786639;18;20069;-72
2023/04/24 05:49:27;;;;;;;5.53;5.07;;;;;;;8.05;100.00;99657.31;7787450;18;20006;-70
2023/04/24 05:51:53;;;;;;;7.03;6.15;;;;;;;8.50;100.00;99741.84;7787095;18;20004;-73
2023/04/24 05:54:20;;;;;;;5.78;5.38;;;;;;;7.46;100.00;99560.63;7785809;18;20016;-69
2023/04/24 05:56:46;;;;;;;6.15;5.63;;;;;;;8.43;100.00;99737.06;7745293;18;20298;-71
2023/04/24 05:59:13;;;;;;;7.00;5.57;;;;;;;8.47;100.00;99743.81;7786043;18;20450;-70
2023/04/24 06:01:40;;;;;;;5.75;5.25;;;;;;;8.51;100.00;99745.31;7787659;18;20065;-70
2023/04/24 06:04:07;;;;;;;5.45;5.13;;;;;;;8.50;100.00;99739.25;7786761;18;20005;-69
2023/04/24 06:06:35;;;;;;;5.10;4.80;;;;;;;8.53;100.00;99778.28;7786636;18;20498;-72
2023/04/24 06:09:02;;;;;;;5.82;5.43;;;;;;;8.63;100.00;99748.97;7744779;18;20064;-72
2023/04/24 06:11:28;;;;;;;5.75;5.25;;;;;;;8.17;100.00;99679.28;7786071;18;20002;-74
2023/04/24 06:13:55;;;;;;;5.88;5.40;;;;;;;8.59;100.00;99764.84;7786126;18;20008;-70
2023/04/24 06:16:21;;;;;;;5.13;4.75;;;;;;;8.63;100.00;99744.56;7786607;18;20021;-72
2023/04/24 06:18:48;;;;;;;5.60;5.22;;;;;;;8.58;100.00;99751.88;7786524;18;20022;-69
2023/04/24 06:21:16;;;;;;;5.60;5.30;;;;;;;8.67;100.00;99751.31;7785027;18;20013;-69
2023/04/24 06:23:42;;;;;;;5.05;4.47;;;;;;;8.00;100.00;99667.22;7786492;18;20485;-68
2023/04/24 06:26:09;;;;;;;6.35;5.78;;;;;;;8.46;100.00;99755.19;7786408;18;19997;-69
2023/04/24 06:28:36;;;;;;;9.70;5.05;;;;;;;8.42;100.00;99771.97;7744517;18;20654;-70
2023/04/24 06:31:02;;;;;;;5.63;5.18;;;;;;;8.34;100.00;99770.63;7788080;18;19998;-73
2023/04/24 06:33:28;;;;;;;4.78;4.55;;;;;;;7.77;100.00;99671.13;7786914;18;20359;-69
2023/04/24 06:35:57;;;;;;;5.32;5.03;;;;;;;8.30;100.00;99768.25;7787073;18;20463;-69
2023/04/24 06:38:24;;;;;;;5.30;5.00;;;;;;;7.80;100.00;99691.88;7786696;18;20146;-70
2023/04/24 06:40:50;;;;;;;5.25;4.95;;;;;;;8.20;100.00;99773.22;7784193;18;20011;-69
2023/04/24 06:43:17;;;;;;;9.82;4.65;;;;;;;8.19;100.00;99769.72;7786530;18;20383;-69
2023/04/24 06:45:43;;;;;;;5.60;5.10;;;;;;;7.83;100.00;99716.97;7785906;18;20065;-69
2023/04/24 06:48:10;;;;;;;4.97;4.68;;;;;;;8.24;100.00;99766.00;7787705;18;20030;-71
2023/04/24 06:50:36;;;;;;;5.13;4.80;;;;;;;8.22;100.00;99773.97;7786978;18;19994;-71
2023/04/24 06:53:03;;;;;;;5.00;4.70;;;;;;;8.14;100.00;99777.00;7786410;18;20382;-70
2023/04/24 06:55:29;;;;;;;5.25;4.85;;;;;;;8.18;100.00;99777.69;7786842;18;20000;-72
2023/04/24 06:57:56;;;;;;;5.22;4.85;;;;;;;8.17;100.00;99789.03;7790758;18;20002;-69
2023/04/24 07:00:24;;;;;;;5.40;5.10;;;;;;;7.51;100.00;99681.28;7786230;18;19994;-70
2023/04/24 07:02:50;;;;;;;5.18;4.78;;;;;;;7.91;100.00;99767.84;7786210;18;20131;-70
2023/04/24 07:05:19;;;;;;;4.55;4.32;;;;;;;8.04;100.00;99799.38;7787509;18;20320;-71
2023/04/24 07:07:47;;;;;;;8.05;5.05;;;;;;;7.98;100.00;99802.31;7786403;18;20489;-71
2023/04/24 07:10:14;;;;;;;4.93;4.72;;;;;;;8.01;100.00;99802.13;7745362;18;19998;-69
2023/04/24 07:12:40;;;;;;;4.40;4.20;;;;;;;7.74;100.00;99758.34;7787901;18;20073;-71
2023/04/24 07:15:10;;;;;;;4.50;4.10;;;;;;;7.48;100.00;99714.56;7787232;18;20056;-70
2023/04/24 07:17:38;;;;;;;4.80;4.53;;;;;;;8.02;100.00;99810.81;7788160;18;20515;-72
2023/04/24 07:20:06;;;;;;;6.10;5.50;;;;;;;8.03;100.00;99813.34;7783472;18;20065;-70
2023/04/24 07:22:33;;;;;;;4.63;4.43;;;;;;;8.06;100.00;99823.63;7787231;18;20013;-70
2023/04/24 07:24:59;;;;;;;4.50;4.30;;;;;;;7.92;100.00;99800.06;7785581;18;20284;-70
2023/04/24 07:27:26;;;;;;;4.78;4.47;;;;;;;7.65;100.00;99751.00;7786738;18;20154;-70
2023/04/24 07:29:52;;;;;;;4.55;4.25;;;;;;;8.06;100.00;99818.41;7785356;18;20006;-70
2023/04/24 07:32:18;;;;;;;4.20;4.00;;;;;;;8.04;100.00;99817.66;7786510;18;20142;-71
2023/04/24 07:34:45;;;;;;;4.40;4.20;;;;;;;7.96;100.00;99822.47;7784989;18;20075;-71
2023/04/24 07:37:12;;;;;;;4.13;3.92;;;;;;;7.68;100.00;99789.19;7787068;18;20062;-70
2023/04/24 07:39:38;;;;;;;5.88;5.47;;;;;;;7.82;100.00;99814.53;7785912;18;20020;-72
2023/04/24 07:42:04;;;;;;;4.70;4.50;;;;;;;7.32;100.00;99765.00;7783218;18;20006;-72
2023/04/24 07:44:31;;;;;;;4.45;4.25;;;;;;;7.50;100.00;99844.09;7787090;18;20078;-69
2023/04/24 07:46:58;;;;;;;4.20;4.00;;;;;;;7.34;100.00;99849.28;7785611;18;20009;-71
2023/04/24 07:49:25;;;;;;;4.32;4.13;;;;;;;6.40;100.00;99769.75;7784457;18;20057;-72
2023/04/24 07:51:51;;;;;;;3.95;3.75;;;;;;;6.15;100.00;99704.97;7785656;18;20029;-70
2023/04/24 07:54:17;;;;;;;3.80;3.67;;;;;;;6.85;100.00;99851.78;7785662;18;20064;-70
2023/04/24 07:56:44;;;;;;;4.00;3.80;;;;;;;6.86;100.00;99850.88;7786806;18;20017;-70
2023/04/24 07:59:11;;;;;;;4.03;3.83;;;;;;;6.83;100.00;99855.38;7784213;18;19998;-73
2023/04/24 08:01:38;;;;;;;3.63;3.53;;;;;;;6.29;100.00;99775.47;7786080;18;20086;-70
2023/04/24 08:04:04;;;;;;;4.20;4.00;;;;;;;6.48;100.00;99809.31;7744419;18;20478;-71
2023/04/24 08:06:31;;;;;;;4.00;3.80;;;;;;;6.86;100.00;99860.47;7788868;18;20527;-70
2023/04/24 08:08:59;;;;;;;3.55;3.45;;;;;;;6.79;100.00;99850.34;7792141;18;20010;-70
2023/04/24 08:11:26;;;;;;;4.00;3.80;;;;;;;6.88;100.00;99841.19;7749811;18;20009;-72
2023/04/24 08:13:54;;;;;;;4.28;4.07;;;;;;;7.04;100.00;99876.97;7787643;18;20057;-70
2023/04/24 08:16:20;;;;;;;4.38;3.90;;;;;;;5.92;100.00;99693.06;7746814;18;20366;-72
2023/04/24 08:18:47;;;;;;;4.00;3.80;;;;;;;7.14;100.00;99839.03;7788454;18;20025;-71
2023/04/24 08:21:16;;;;;;;4.30;4.05;;;;;;;7.16;100.00;99866.72;7788420;18;20288;-69
2023/04/24 08:23:43;;;;;;;4.07;3.88;;;;;;;7.26;100.00;99868.88;7746148;18;20001;-71
2023/04/24 08:26:11;;;;;;;4.75;4.45;;;;;;;6.55;100.00;99747.28;7788310;18;20006;-69
2023/04/24 08:28:38;;;;;;;4.32;4.13;;;;;;;7.19;100.00;99866.53;7744967;18;20444;-70
2023/04/24 08:31:05;;;;;;;4.10;3.90;;;;;;;6.89;100.00;99810.75;7787333;18;20005;-71
2023/04/24 08:33:34;;;;;;;4.70;4.40;;;;;;;7.28;100.00;99893.97;7787746;18;19993;-69
2023/04/24 08:36:02;;;;;;;4.30;4.10;;;;;;;7.24;100.00;99888.97;7786457;18;20069;-70
2023/04/24 08:38:29;;;;;;;4.72;4.43;;;;;;;7.15;100.00;99891.13;7787465;18;19998;-69
2023/04/24 08:40:58;;;;;;;4.50;4.30;;;;;;;6.55;100.00;99815.03;7786377;18;20411;-71
2023/04/24 08:43:25;;;;;;;4.38;4.18;;;;;;;7.26;100.00;99921.06;7784384;18;20001;-70
2023/04/24 08:45:55;;;;;;;4.35;4.15;;;;;;;7.19;100.00;99942.22;7787940;18;20062;-72
2023/04/24 08:48:23;;;;;;;4.40;4.10;;;;;;;7.19;100.00;99941.38;7787120;18;20063;-70
2023/04/24 08:50:58;;;;;;;4.35;4.15;;;;;;;6.90;100.00;99906.34;7788549;18;20274;-69
2023/04/24 08:53:26;;;;;;;4.57;4.30;;;;;;;6.74;100.00;99881.00;7788985;18;20296;-69
2023/04/24 08:55:55;;;;;;;4.75;4.45;;;;;;;6.98;100.00;99944.16;7789212;18;20002;-73
2023/04/24 08:58:25;;;;;;;4.10;3.90;;;;;;;6.88;100.00;99940.31;7786976;18;20135;-72
2023/04/24 09:00:54;;;;;;;5.18;4.82;;;;;;;7.09;100.00;99971.47;7788562;18;20006;-69
2023/04/24 09:03:21;;;;;;;4.88;4.60;;;;;;;7.13;100.00;99984.28;7745754;18;20017;-70
2023/04/24 09:05:50;;;;;;;4.57;4.38;;;;;;;6.63;100.00;99904.16;7788907;18;20632;-71
2023/04/24 09:08:23;;;;;;;4.57;4.28;;;;;;;7.14;100.00;99991.22;7745336;18;20450;-72
2023/04/24 09:10:49;;;;;;;4.68;4.38;;;;;;;6.50;100.00;99895.25;7746707;18;20002;-70
2023/04/24 09:13:18;;;;;;;4.55;4.35;;;;;;;7.06;100.00;99950.78;7787128;18;20018;-71
2023/04/24 09:15:45;;;;;;;4.43;4.22;;;;;;;6.31;100.00;99827.50;7786474;18;20328;-70
2023/04/24 09:18:11;;;;;;;8.23;5.22;;;;;;;7.21;100.00;99989.13;7786419;18;20143;-73
2023/04/24 09:21:01;;;;;;;5.63;5.03;;;;;;;7.44;100.00;100008.88;7788117;18;20005;-69
2023/04/24 09:23:30;;;;;;;4.78;4.47;;;;;;;7.40;100.00;100025.63;7788366;18;20224;-73
2023/04/24 09:25:59;;;;;;;4.95;4.65;;;;;;;7.43;100.00;100038.50;7786558;18;20527;-71
2023/04/24 09:28:37;;;;;;;6.25;5.65;;;;;;;6.96;100.00;99971.25;7785284;18;20399;-71
2023/04/24 09:31:06;;;;;;;5.43;4.93;;;;;;;7.52;100.00;100052.88;7786471;18;20009;-73
2023/04/24 09:33:33;;;;;;;9.90;5.55;;;;;;;7.63;100.00;100058.38;7785500;18;20198;-71
2023/04/24 09:36:00;;;;;;;5.20;4.75;;;;;;;7.58;100.00;100066.47;7786105;18;19998;-71
2023/04/24 09:38:37;;;;;;;5.25;4.78;;;;;;;7.58;100.00;100078.69;7786630;18;20400;-72
2023/04/24 09:41:08;;;;;;;4.75;4.45;;;;;;;7.58;100.00;100083.91;7786755;18;20504;-71
2023/04/24 09:43:35;;;;;;;6.00;5.32;;;;;;;7.48;100.00;100039.13;7784024;18;20205;-69
2023/04/24 09:46:10;;;;;;;5.10;4.70;;;;;;;7.59;100.00;100047.25;7788159;18;20022;-69
2023/04/24 09:48:38;;;;;;;5.40;4.72;;;;;;;7.96;100.00;100102.88;7745401;18;20319;-69
2023/04/24 09:51:11;;;;;;;5.28;4.78;;;;;;;8.10;100.00;100096.94;7787022;18;20001;-73
2023/04/24 09:53:39;;;;;;;5.57;5.18;;;;;;;8.27;100.00;100111.72;7787463;18;20005;-69
2023/04/24 09:56:10;;;;;;;5.25;4.85;;;;;;;8.26;100.00;100076.06;7786775;18;20025;-70
2023/04/24 09:58:36;;;;;;;5.78;5.47;;;;;;;8.45;100.00;100112.56;7787026;18;20443;-70
2023/04/24 10:01:03;;;;;;;5.63;5.22;;;;;;;8.33;100.00;100115.81;7787053;18;20145;-69
2023/04/24 10:03:31;;;;;;;5.90;5.32;;;;;;;8.49;100.00;100123.72;7786905;18;20002;-69
2023/04/24 10:05:59;;;;;;;6.55;4.75;;;;;;;8.76;100.00;100118.81;7786534;18;20393;-69
2023/04/24 10:08:32;;;;;;;5.35;4.88;;;;;;;8.48;100.00;100051.41;7786707;18;20002;-70
2023/04/24 10:10:59;;;;;;;;;;;;;;;9.03;100.00;100129.53;7787693;18;20065;-69
2023/04/24 10:13:26;;;;;;;5.30;4.90;;;;;;;9.07;100.00;100117.97;7787566;18;19925;-71
2023/04/24 10:15:53;;;;;;;6.28;4.88;;;;;;;9.34;100.00;100120.81;7786517;18;20348;-70
2023/04/24 10:18:21;;;;;;;5.75;5.35;;;;;;;9.67;100.00;100134.72;7788395;18;20011;-70
2023/04/24 10:20:48;;;;;;;5.45;5.15;;;;;;;9.78;100.00;100132.28;7743882;18;20399;-70
2023/04/24 10:23:15;;;;;;;5.20;4.90;;;;;;;8.81;100.00;100024.34;7786556;18;20209;-70
2023/04/24 10:25:42;;;;;;;4.93;4.63;;;;;;;9.84;100.00;100146.81;7784581;18;20001;-70
2023/04/24 10:28:09;;;;;;;5.45;4.97;;;;;;;9.61;100.00;100140.28;7785681;18;19997;-70
2023/04/24 10:30:37;;;;;;;6.25;5.63;;;;;;;9.61;100.00;100156.84;7745738;18;20021;-72
2023/04/24 10:33:05;;;;;;;6.10;5.60;;;;;;;9.50;100.00;100140.88;7785208;18;20002;-72
2023/04/24 10:35:34;;;;;;;5.28;4.88;;;;;;;8.86;100.00;100135.69;7746101;18;19994;-69
2023/04/24 10:38:06;;;;;;;5.93;4.85;;;;;;;8.84;100.00;100145.41;7784609;18;20000;-69
2023/04/24 10:40:34;;;;;;;9.65;4.82;;;;;;;8.98;100.00;100162.97;7790526;18;20283;-71
2023/04/24 10:43:10;;;;;;;4.95;4.55;;;;;;;8.99;100.00;100165.47;7787574;18;19998;-69
2023/04/24 10:45:37;;;;;;;4.50;4.30;;;;;;;8.89;100.00;100160.84;7786820;18;20203;-73
2023/04/24 10:48:10;;;;;;;4.65;4.35;;;;;;;9.23;100.00;100172.94;7785221;18;20010;-70
2023/04/24 10:50:52;;;;;;;6.15;4.85;;;;;;;9.51;100.00;100182.72;7785640;18;20207;-70
2023/04/24 10:53:23;;;;;;;5.38;5.00;;;;;;;9.37;100.00;100161.69;7786224;18;19997;-70
2023/04/24 10:55:51;;;;;;;5.72;5.05;;;;;;;9.56;100.00;100178.09;7785506;18;20018;-72
2023/04/24 10:58:22;;;;;;;4.85;4.38;;;;;;;9.69;100.00;100195.72;7784745;18;20069;-70
2023/04/24 11:01:00;;;;;;;5.55;5.22;;;;;;;9.54;100.00;100190.41;7786730;18;19998;-70
2023/04/24 11:03:29;;;;;;;5.55;5.05;;;;;;;9.50;100.00;100196.75;7784155;18;19998;-70
2023/04/24 11:06:02;;;;;;;4.68;4.38;;;;;;;8.88;100.00;100119.88;7786061;18;20002;-71
2023/04/24 11:08:35;;;;;;;;;;;;;;;9.48;100.00;100172.44;7786060;18;20033;-70
2023/04/24 11:11:04;;;;;;;4.68;4.38;;;;;;;9.45;100.00;100166.50;7785681;18;19933;-70
2023/04/24 11:13:55;;;;;;;5.05;4.75;;;;;;;9.61;100.00;100193.53;7744699;18;20002;-72
2023/04/24 11:16:47;;;;;;;4.88;4.68;;;;;;;9.94;100.00;100214.38;7787223;18;20063;-70
2023/04/24 11:19:13;;;;;;;5.07;4.70;;;;;;;10.14;100.00;100207.97;7785341;18;20004;-70
2023/04/24 11:22:03;;;;;;;11.32;5.20;;;;;;;10.64;100.00;100220.81;7786551;18;20081;-70
2023/04/24 11:24:32;;;;;;;5.18;4.88;;;;;;;10.26;100.00;100201.13;7785062;18;20074;-69
2023/04/24 11:27:04;;;;;;;6.50;5.72;;;;;;;10.87;100.00;100201.06;7785797;18;20020;-70
2023/04/24 11:30:00;;;;;;;6.22;5.50;;;;;;;11.16;100.00;100180.84;7787346;18;19998;-70
2023/04/24 11:32:33;;;;;;;10.60;4.70;;;;;;;10.47;97.91;100073.16;7789887;18;20006;-70
2023/04/24 11:35:03;;;;;;;9.50;5.05;;;;;;;11.28;96.57;100180.09;7785613;18;20171;-71
2023/04/24 11:37:50;;;;;;;5.35;4.93;;;;;;;11.63;96.64;100189.31;7787932;18;19993;-70